sensor_id;sensor_type;location;lat;lon;timestamp;temperature;humidity
4249;DHT22;8404;48.752;12.922;2023-01-15T11:13:52;7.60;92.60
4249;DHT22;8404;48.752;12.922;2023-01-15T11:16:39;8.30;99.90
4249;DHT22;8404;48.752;12.922;2023-01-15T11:19:28;8.30;99.90
4249;DHT22;8404;48.752;12.922;2023-01-15T11:22:07;8.30;99.90
4249;DHT22;8404;48.752;12.922;2023-01-15T11:24:43;8.30;99.90
4249;DHT22;8404;48.752;12.922;2023-01-15T11:27:15;8.20;99.90
4249;DHT22;8404;48.752;12.922;2023-01-15T11:29:49;8.20;99.90
4249;DHT22;8404;48.752;12.922;2023-01-15T11:32:26;8.30;99.90
4249;DHT22;8404;48.752;12.922;2023-01-15T11:34:56;8.30;99.90
4249;DHT22;8404;48.752;12.922;2023-01-15T11:37:25;8.40;99.90
4249;DHT22;8404;48.752;12.922;2023-01-15T11:39:55;8.40;99.20
4249;DHT22;8404;48.752;12.922;2023-01-15T11:42:23;8.40;98.40
4249;DHT22;8404;48.752;12.922;2023-01-15T11:45:15;8.40;97.40
4249;DHT22;8404;48.752;12.922;2023-01-15T11:48:13;8.40;96.80
4249;DHT22;8404;48.752;12.922;2023-01-15T11:51:04;8.40;97.10
4249;DHT22;8404;48.752;12.922;2023-01-15T11:53:39;8.40;96.60
4249;DHT22;8404;48.752;12.922;2023-01-15T11:56:12;8.40;96.50
4249;DHT22;8404;48.752;12.922;2023-01-15T11:58:45;8.40;97.10
4249;DHT22;8404;48.752;12.922;2023-01-15T12:01:20;8.40;97.20
4249;DHT22;8404;48.752;12.922;2023-01-15T12:03:51;8.40;97.60
4249;DHT22;8404;48.752;12.922;2023-01-15T12:06:20;8.30;94.60
4249;DHT22;8404;48.752;12.922;2023-01-15T12:08:50;8.30;93.40
4249;DHT22;8404;48.752;12.922;2023-01-15T12:11:29;8.20;93.60
4249;DHT22;8404;48.752;12.922;2023-01-15T12:14:10;8.20;93.40
4249;DHT22;8404;48.752;12.922;2023-01-15T12:16:47;8.20;93.70
4249;DHT22;8404;48.752;12.922;2023-01-15T12:19:28;8.10;93.90
4249;DHT22;8404;48.752;12.922;2023-01-15T12:22:19;8.10;93.80
4249;DHT22;8404;48.752;12.922;2023-01-15T12:25:06;8.00;93.50
4249;DHT22;8404;48.752;12.922;2023-01-15T12:27:53;8.00;94.20
4249;DHT22;8404;48.752;12.922;2023-01-15T12:30:34;7.90;94.60
4249;DHT22;8404;48.752;12.922;2023-01-15T12:58:43;7.90;93.90
4249;DHT22;8404;48.752;12.922;2023-01-15T13:01:20;7.30;94.40
4249;DHT22;8404;48.752;12.922;2023-01-15T13:11:29;7.30;94.60
4249;DHT22;8404;48.752;12.922;2023-01-15T13:13:58;7.20;94.60
4249;DHT22;8404;48.752;12.922;2023-01-15T13:16:32;7.20;94.60
4249;DHT22;8404;48.752;12.922;2023-01-15T13:19:16;7.20;94.60
4249;DHT22;8404;48.752;12.922;2023-01-15T13:21:49;7.10;94.70
4249;DHT22;8404;48.752;12.922;2023-01-15T13:24:46;7.10;94.70
4249;DHT22;8404;48.752;12.922;2023-01-15T13:27:29;7.10;94.90
4249;DHT22;8404;48.752;12.922;2023-01-15T13:30:12;7.10;95.20
4249;DHT22;8404;48.752;12.922;2023-01-15T13:32:46;7.10;95.30
4249;DHT22;8404;48.752;12.922;2023-01-15T13:35:21;7.10;94.70
4249;DHT22;8404;48.752;12.922;2023-01-15T13:37:57;7.10;95.20
4249;DHT22;8404;48.752;12.922;2023-01-15T13:50:59;7.00;95.30
4249;DHT22;8404;48.752;12.922;2023-01-15T13:53:30;6.90;96.20
4249;DHT22;8404;48.752;12.922;2023-01-15T13:58:34;6.90;96.40
4249;DHT22;8404;48.752;12.922;2023-01-15T14:24:54;6.90;94.80
4249;DHT22;8404;48.752;12.922;2023-01-15T14:27:39;6.80;92.50
4249;DHT22;8404;48.752;12.922;2023-01-15T15:11:01;6.70;92.10
4249;DHT22;8404;48.752;12.922;2023-01-15T15:16:25;6.30;92.10
4249;DHT22;8404;48.752;12.922;2023-01-15T15:18:57;6.30;91.30
4249;DHT22;8404;48.752;12.922;2023-01-15T15:21:29;6.20;91.40
4249;DHT22;8404;48.752;12.922;2023-01-15T15:24:02;6.10;91.60
4249;DHT22;8404;48.752;12.922;2023-01-15T15:26:35;6.10;91.80
4249;DHT22;8404;48.752;12.922;2023-01-15T15:29:05;6.10;92.10
4249;DHT22;8404;48.752;12.922;2023-01-15T15:31:35;6.00;92.50
